ADDS METAR Data INFO
IDs: Format: Raw Decoded Include TAF

Data at: 1047 UTC 19 Oct 2017

KJVW 191035Z AUTO 00000KT 1 1/4SM BR CLR 08/08 A3020 RMK AO2
KJVW 191015Z AUTO 00000KT 1/2SM FG VV005 08/07 A3019 RMK AO2
KJVW 190955Z AUTO 00000KT 3/4SM BR VV005 08/08 A3019 RMK AO2
KJVW 190935Z AUTO 00000KT 5SM BR CLR 08/08 A3018 RMK AO2
KJVW 190915Z AUTO 00000KT 1/2SM FG VV005 08/07 A3018 RMK AO2
KJVW 190855Z AUTO 00000KT 1 1/4SM BR CLR 08/07 A3018 RMK AO2
KJVW 190835Z AUTO 00000KT 2SM BR CLR 08/08 A3018 RMK AO2
KJVW 190815Z AUTO 00000KT 1/2SM FG VV005 08/07 A3018 RMK AO2
KJVW 190755Z AUTO 00000KT 2SM BR CLR 08/07 A3018 RMK AO2
KJVW 190735Z AUTO 00000KT 1 3/4SM BR CLR 08/08 A3018 RMK AO2
KJVW 190715Z AUTO 00000KT 1/2SM FG VV005 08/08 A3018 RMK AO2
KJVW 190655Z AUTO 00000KT 1 1/4SM BR CLR 09/08 A3018 RMK AO2
KJVW 190635Z AUTO 00000KT 3SM BR CLR 09/09 A3019 RMK AO2
KJVW 190615Z AUTO 00000KT 6SM BR CLR 09/09 A3019 RMK AO2
KJVW 190555Z AUTO 00000KT 8SM CLR 09/09 A3019 RMK AO2
KJVW 190535Z AUTO 11003KT M1/4SM FG VV000 09/08 A3019 RMK AO2
KJVW 190515Z AUTO 00000KT 6SM BR CLR 10/09 A3021 RMK AO2
KJVW 190455Z AUTO 00000KT 6SM BR CLR 10/09 A3021 RMK AO2
KJVW 190435Z AUTO 00000KT 4SM BR CLR 10/09 A3021 RMK AO2
KJVW 190415Z AUTO 00000KT 4SM BR CLR 11/11 A3021 RMK AO2
KJVW 190355Z AUTO 00000KT 7SM CLR 11/10 A3021 RMK AO2
KJVW 190335Z AUTO 00000KT 1/2SM FG VV005 11/10 A3021 RMK AO2
KJVW 190315Z AUTO 00000KT 3/4SM BR VV005 11/10 A3021 RMK AO2
KJVW 190255Z AUTO 00000KT 1 3/4SM BR CLR 11/11 A3021 RMK AO2
KJVW 190235Z AUTO 00000KT 5SM BR CLR 12/11 A3021 RMK AO2
KJVW 190215Z AUTO 00000KT 9SM CLR 12/12 A3020 RMK AO2
KJVW 190155Z AUTO 00000KT 5SM BR CLR 12/12 A3020 RMK AO2
KJVW 190135Z AUTO 00000KT 8SM CLR 13/12 A3020 RMK AO2
KJVW 190115Z AUTO 00000KT 9SM CLR 13/12 A3020 RMK AO2
KJVW 190055Z AUTO 00000KT 9SM CLR 14/13 A3019 RMK AO2
KJVW 190035Z AUTO 00000KT 10SM CLR 14/13 A3019 RMK AO2
KJVW 190015Z AUTO 00000KT 10SM CLR 15/13 A3018 RMK AO2
KJVW 182355Z AUTO 00000KT 10SM CLR 16/14 A3017 RMK AO2
KJVW 182335Z AUTO 00000KT 9SM CLR 18/14 A3017 RMK AO2
KJVW 182315Z AUTO 00000KT 10SM CLR 21/17 A3016 RMK AO2
KJVW 182255Z AUTO 16004KT 9SM CLR 23/19 A3016 RMK AO2
KJVW 182235Z AUTO 00000KT 9SM CLR 24/20 A3016 RMK AO2
KJVW 182215Z AUTO 13004KT 9SM CLR 25/21 A3016 RMK AO2
KJVW 182155Z AUTO 12004KT 9SM CLR 25/21 A3015 RMK AO2
KJVW 182135Z AUTO 14005KT 9SM CLR 26/21 A3015 RMK AO2
KJVW 182115Z AUTO 10004KT 9SM CLR 26/20 A3016 RMK AO2
KJVW 182055Z AUTO 00000KT 9SM CLR 25/20 A3016 RMK AO2
KJVW 182035Z AUTO 14004KT 9SM CLR 26/20 A3016 RMK AO2
KJVW 182015Z AUTO VRB06KT 8SM CLR 26/22 A3016 RMK AO2
KJVW 181955Z AUTO VRB05G13KT 9SM CLR 25/22 A3017 RMK AO2
KJVW 181935Z AUTO VRB05KT 9SM CLR 25/23 A3017 RMK AO2
KJVW 181915Z AUTO 00000KT 9SM CLR 25/23 A3018 RMK AO2
KJVW 181855Z AUTO VRB04G10KT 9SM CLR 25/22 A3019 RMK AO2
KJVW 181835Z AUTO 12006KT 10SM CLR 24/21 A3020 RMK AO2
KJVW 181815Z AUTO VRB03KT 9SM CLR 24/22 A3021 RMK AO2
KJVW 181755Z AUTO VRB05KT 9SM CLR 24/22 A3023 RMK AO2
KJVW 181735Z AUTO VRB06G16KT 9SM CLR 23/21 A3024 RMK AO2
KJVW 181715Z AUTO 15005G10KT 8SM CLR 23/21 A3024 RMK AO2
KJVW 181655Z AUTO 13005G12KT 9SM CLR 23/21 A3024 RMK AO2
KJVW 181635Z AUTO 14006G11KT 9SM CLR 22/20 A3025 RMK AO2
KJVW 181615Z AUTO 12006KT 9SM CLR 21/19 A3025 RMK AO2
KJVW 181555Z AUTO 12007KT 9SM CLR 20/19 A3025 RMK AO2
KJVW 181535Z AUTO VRB06KT 9SM CLR 20/19 A3025 RMK AO2
KJVW 181515Z AUTO 13004KT 8SM CLR 19/17 A3025 RMK AO2
KJVW 181455Z AUTO 12007KT 9SM CLR 17/16 A3025 RMK AO2
KJVW 181435Z AUTO 11006KT 9SM CLR 16/15 A3025 RMK AO2
KJVW 181415Z AUTO 10004KT 9SM CLR 14/13 A3025 RMK AO2
KJVW 181355Z AUTO 11006KT 9SM CLR 13/12 A3024 RMK AO2
KJVW 181335Z AUTO 00000KT 8SM CLR 12/11 A3024 RMK AO2
KJVW 181315Z AUTO 00000KT 8SM CLR 10/10 A3023 RMK AO2
KJVW 181255Z AUTO 00000KT 6SM BR CLR 08/08 A3023 RMK AO2
KJVW 181235Z AUTO 00000KT 1SM BR CLR 07/07 A3022 RMK AO2 VIS 1/4V5
KJVW 181215Z AUTO 00000KT 1SM BR CLR 06/06 A3022 RMK AO2
KJVW 181155Z AUTO 00000KT 8SM CLR 07/07 A3022 RMK AO2
KJVW 181135Z AUTO 00000KT 1/2SM BR VV005 06/06 A3022 RMK AO2
KJVW 181115Z AUTO 00000KT 6SM BR CLR 07/07 A3022 RMK AO2
KJVW 181055Z AUTO 00000KT 3SM BR CLR 07/07 A3022 RMK AO2
KJVW 181035Z AUTO 00000KT 2SM BR CLR 07/07 A3022 RMK AO2
KJVW 181015Z AUTO 00000KT 5SM BR CLR 07/07 A3021 RMK AO2
KJVW 180955Z AUTO 00000KT 1/2SM FG VV005 07/07 A3021 RMK AO2 VIS 1/4V1 1/4
KJVW 180935Z AUTO 00000KT 1/2SM BR VV005 08/08 A3021 RMK AO2 VIS 1/4V1 1/2
KJVW 180915Z AUTO 00000KT 1/2SM FG VV005 08/08 A3021 RMK AO2
KJVW 180855Z AUTO 00000KT 1/4SM FG VV002 08/08 A3021 RMK AO2
KJVW 180835Z AUTO 00000KT 1SM BR CLR 08/08 A3021 RMK AO2
KJVW 180815Z AUTO 00000KT 1/2SM FG VV005 08/08 A3021 RMK AO2 VIS 1/4V4
KJVW 180755Z AUTO 00000KT 1 1/4SM BR CLR 09/09 A3021 RMK AO2
KJVW 180735Z AUTO 00000KT 4SM BR CLR 09/09 A3021 RMK AO2
KJVW 180715Z AUTO 00000KT 1/2SM FG VV005 09/09 A3021 RMK AO2 VIS 1/4V2
KJVW 180655Z AUTO 00000KT 10SM CLR 09/09 A3021 RMK AO2
KJVW 180635Z AUTO 00000KT 3/4SM BR VV005 09/09 A3021 RMK AO2
KJVW 180615Z AUTO 00000KT 1/4SM FG VV002 09/09 A3020 RMK AO2
KJVW 180555Z AUTO 00000KT 3SM BR CLR 09/09 A3020 RMK AO2
KJVW 180535Z AUTO 00000KT 1/4SM FG VV002 10/09 A3020 RMK AO2
KJVW 180515Z AUTO 00000KT 1/4SM FG VV002 09/09 A3020 RMK AO2
KJVW 180455Z AUTO 00000KT 1 1/4SM BR CLR 10/09 A3021 RMK AO2
KJVW 180435Z AUTO 00000KT 1/4SM FG VV002 10/10 A3021 RMK AO2
KJVW 180415Z AUTO 00000KT 3SM BR CLR 10/10 A3021 RMK AO2
KJVW 180355Z AUTO 00000KT 1/4SM FG VV002 11/11 A3021 RMK AO2
KJVW 180335Z AUTO 00000KT 1/4SM FG VV002 11/11 A3021 RMK AO2
KJVW 180315Z AUTO 00000KT 3SM BR CLR 11/11 A3021 RMK AO2
KJVW 180255Z AUTO 00000KT 1/4SM FG VV002 12/11 A3021 RMK AO2
KJVW 180235Z AUTO 00000KT 6SM BR CLR 12/12 A3021 RMK AO2
KJVW 180215Z AUTO 00000KT 8SM CLR 12/12 A3020 RMK AO2
KJVW 180155Z AUTO 00000KT 9SM CLR 13/12 A3020 RMK AO2
KJVW 180135Z AUTO 00000KT 10SM CLR 13/13 A3019 RMK AO2
KJVW 180115Z AUTO 00000KT 9SM CLR 14/13 A3019 RMK AO2
KJVW 180055Z AUTO 00000KT 10SM CLR 15/14 A3018 RMK AO2
KJVW 180035Z AUTO 00000KT 10SM CLR 15/15 A3018 RMK AO2
KJVW 180015Z AUTO 00000KT 10SM CLR 16/14 A3017 RMK AO2
KJVW 172355Z AUTO 00000KT 10SM CLR 16/14 A3017 RMK AO2
KJVW 172335Z AUTO 00000KT 10SM CLR 17/15 A3017 RMK AO2
KJVW 172315Z AUTO 00000KT 9SM CLR 21/19 A3016 RMK AO2
KJVW 172255Z AUTO 00000KT 9SM CLR 23/18 A3016 RMK AO2